Aeroporto :
LOGIN :

Iscrizione | Disclaimer

   EN    FR    IT 

 










Sommario :    VFR   VFR Marginale   IFR   IFR Intensivo   IFR Molto Intensivo
Visibilità : 
Base nubi : 
>= 8 km
>= 3000ft
5 / 8 km
1000 / 3000 ft
1500m / 5 km
500 / 1000 ft
800 / 1500m
200 / 500 ft
< 800m
< 200 ft
Simboli :   Temporali  Nebbia  Neve Forte  Precipitazioni Forti  Vento > 20 kt
SIGMETs :   Varie  Temporali  Ghiacco  Turbolenza  Onda orograficha  Ceneri Vulcaniche






- Altitudine del aeroporto : 622 ft
- Codice IATA : BRS


EGGD - Bristol Int.

ULTIMO METAR :
  • 040920Z AUTO 06011KT 360V080 4400 RADZ OVC008 02/01 Q1015

METARs OBSOLETI :
  • 040850Z AUTO 06012KT 010V080 3900 RADZ BKN006 OVC014 02/01 Q1015
  • 040820Z AUTO 04013KT 360V080 5000 -RADZ BKN007 BKN013 OVC030 02/01 Q1015 RERA REDZ
  • 040750Z AUTO 04013KT 360V070 9999 FEW010 OVC021 02/01 Q1015
  • 040720Z AUTO 02011KT 360V080 9999 BKN025 OVC030 02/01 Q1015
  • 040650Z AUTO 01012KT 360V070 9999 OVC026 02/01 Q1015

TAF AMD TAF EGGD
Valido dal 04 a 08 ore il 05 a 06 ore UTC


040852Z 0408/0506 05010KT 9999 SCT022
TEMPO 0408/0418 BKN010
PROB30
TEMPO 0408/0416 4000 RADZ BKN007
PROB30
TEMPO 0418/0506 BKN012
ATIS : +44 1275 473 666



MetMap, La meteo Aeronautica in un colpo d'occhio ! - Copyright ORBIFLY Dicembre 2007 - Disclaimer

ORBIFLY MET'MAP TEAM :

Programmazione e sviluppo : Alexandra Zaïnal
Concezione : Baudouin d'Aumeries
Supporto tecnico e logistico : Manuel Goepfert
Aiuto : Marc-Olivier Méhu
Aiuto per la traduzione : Arnaldo La Scala




FONTI E CREDITI :

   NOAA